Latest Weather Observations for Weipa

IDQ60801

Issued at 1:02 pm EST Tuesday 30 May 2017 (issued every 30 minutes, with the page automatically refreshed every 10 minutes)

About weather observations | Map of weather stations | Latest weather observations for QLD | Other Formats
Station Details ID: 027045 Name: WEIPA AERO Lat: -12.68 Lon: 141.92 Height: 17.96 m
Data from the previous 72 hours. | See also: Recent months at Weipa
Date/Time
EST
Temp
°C
App
Temp
°C
Dew
Point
°C
Rel
Hum
%
Delta-T
°C
Wind Press
QNH
hPa
Press
MSL
hPa
Rain since
9am
mm
Dir  Spd
km/h
Gust
km/h
Spd
kts
Gust
kts
30/01:00pm 28.9 29.1 20.5 60 5.6 SE 20 30 11 16 1012.4 - 0.0
30/12:30pm 28.9 29.1 20.1 59 5.8 SE 19 24 10 13 1012.6 - 0.0
30/12:00pm 28.9 28.3 19.8 58 6.0 ESE 22 32 12 17 1012.9 1012.7 0.0
30/11:30am 29.1 29.0 19.9 57 6.0 E 20 28 11 15 1013.2 - 0.0
30/11:00am 29.1 29.1 20.2 58 5.9 E 20 32 11 17 1013.5 - 0.0
30/10:30am 27.7 27.2 20.0 63 5.0 ESE 22 32 12 17 1013.7 - 0.0
30/10:00am 27.3 27.0 20.4 66 4.5 ESE 22 35 12 19 1013.9 - 0.0
30/09:30am 25.9 24.9 19.6 68 4.1 ESE 24 35 13 19 1014.0 - 0.0
30/09:00am 25.3 25.3 19.7 71 3.6 E 19 26 10 14 1013.6 1013.4 0.0
30/08:30am 24.6 25.6 19.5 73 3.3 SE 13 19 7 10 1013.4 - 0.0
30/08:00am 23.7 24.6 19.3 76 2.8 SE 13 19 7 10 1013.0 - 0.0
30/07:30am 23.2 25.3 19.3 79 2.5 SE 7 13 4 7 1012.9 - 0.0
30/07:00am 22.7 24.8 19.4 81 2.1 SSE 7 13 4 7 1012.7 - 0.0
30/06:30am 22.9 24.7 19.5 81 2.2 SSE 9 15 5 8 1012.6 - 0.0
30/06:00am 23.1 25.3 19.6 80 2.2 SSE 7 17 4 9 1012.5 1012.3 0.0
30/05:30am 23.6 25.6 19.9 80 2.4 SSE 9 13 5 7 1012.5 - 0.0
30/05:00am 23.5 25.6 20.2 82 2.1 SE 9 13 5 7 1012.5 - 0.0
30/04:30am 23.3 25.4 20.2 83 2.0 SE 9 15 5 8 1012.6 - 0.0
30/04:00am 23.4 25.6 20.3 83 2.0 ESE 9 11 5 6 1012.5 - 0.0
30/03:30am 23.2 25.6 20.1 83 2.0 SE 7 13 4 7 1012.5 - 0.0
30/03:00am 23.4 25.8 20.0 81 2.2 ESE 7 11 4 6 1012.7 1012.5 0.0
30/02:30am 23.7 25.3 19.9 79 2.5 SE 11 17 6 9 1012.9 - 0.0
30/02:00am 23.8 25.3 19.8 78 2.6 SE 11 17 6 9 1013.1 - 0.0
30/01:30am 23.9 26.1 19.6 77 2.8 SSE 7 11 4 6 1013.3 - 0.0
30/01:00am 24.1 25.9 19.6 76 2.9 SSE 9 15 5 8 1013.3 - 0.0
30/12:30am 24.2 25.2 19.5 75 3.0 ESE 13 20 7 11 1013.2 - 0.0
30/12:00am 24.5 25.1 19.5 73 3.2 SE 15 22 8 12 1013.6 1013.4 0.0
 
Date/Time
EST
Temp
°C
App
Temp
°C
Dew
Point
°C
Rel
Hum
%
Delta-T
°C
Wind Press
QNH
hPa
Press
MSL
hPa
Rain since
9am
mm
Dir  Spd
km/h
Gust
km/h
Spd
kts
Gust
kts
29/11:30pm 24.9 25.5 19.4 71 3.5 SE 15 24 8 13 1013.9 - 0.0
29/11:00pm 24.9 25.0 19.2 70 3.7 ESE 17 22 9 12 1014.0 - 0.0
29/10:30pm 25.2 25.6 19.0 68 4.0 SE 15 20 8 11 1014.0 - 0.0
29/10:00pm 25.6 25.6 18.9 66 4.3 ESE 17 26 9 14 1014.0 - 0.0
29/09:30pm 26.0 25.4 18.9 65 4.5 ESE 20 28 11 15 1013.8 - 0.0
29/09:00pm 26.2 25.8 18.8 63 4.7 ESE 19 28 10 15 1013.9 1013.7 0.0
29/08:30pm 26.5 26.5 19.0 63 4.8 ESE 17 24 9 13 1014.0 - 0.0
29/08:00pm 26.5 26.9 19.1 64 4.8 ESE 15 20 8 11 1013.6 - 0.0
29/07:30pm 26.5 26.9 19.1 64 4.8 ESE 15 20 8 11 1013.2 - 0.0
29/07:00pm 26.7 27.9 19.1 63 4.9 ESE 11 20 6 11 1012.7 - 0.0
29/06:30pm 27.1 28.3 19.0 61 5.2 ESE 11 17 6 9 1012.2 - 0.0
29/06:00pm 27.8 28.6 19.0 58 5.7 ESE 13 19 7 10 1012.0 1011.8 0.0
29/05:30pm 28.4 28.0 19.0 56 6.1 ESE 19 28 10 15 1012.0 - 0.0
29/05:00pm 28.9 27.5 18.8 54 6.5 ESE 24 32 13 17 1011.7 - 0.0
29/04:30pm 29.3 28.0 19.1 54 6.6 ESE 24 35 13 19 1011.5 - 0.0
29/04:00pm 29.7 28.2 18.5 51 7.2 E 24 33 13 18 1011.4 - 0.0
29/03:30pm 30.7 28.9 18.8 49 7.7 ESE 26 37 14 20 1011.3 - 0.0
29/03:00pm 30.5 28.2 18.5 48 7.7 ESE 28 35 15 19 1011.3 1011.1 0.0
29/02:30pm 30.6 28.5 19.0 50 7.5 ESE 28 41 15 22 1011.3 - 0.0
29/02:00pm 31.1 29.3 18.8 48 8.0 ESE 26 37 14 20 1011.4 - 0.0
29/01:30pm 31.3 30.4 19.1 48 8.0 ESE 22 33 12 18 1011.7 - 0.0
29/01:00pm 30.8 29.1 18.9 49 7.7 ESE 26 35 14 19 1012.1 - 0.0
29/12:30pm 31.3 29.7 19.2 48 7.9 ESE 26 35 14 19 1012.6 - 0.0
29/12:00pm 30.5 29.6 19.8 52 7.0 SE 24 33 13 18 1013.0 1012.8 0.0
29/11:30am 29.6 29.7 20.0 56 6.3 ESE 19 33 10 18 1013.3 - 0.0
29/11:00am 28.3 25.8 18.8 56 6.1 ESE 30 43 16 23 1013.5 - 0.0
29/10:30am 28.1 27.2 19.8 60 5.4 E 24 41 13 22 1013.5 - 0.0
29/10:00am 27.7 26.7 19.6 61 5.3 ESE 24 35 13 19 1013.6 - 0.0
29/09:30am 26.2 24.5 19.0 64 4.6 ESE 26 39 14 21 1013.7 - 0.0
29/09:00am 24.9 24.0 19.1 70 3.7 ESE 22 30 12 16 1013.8 1013.6 0.0
29/08:30am 23.9 23.9 19.0 74 3.1 SE 17 20 9 11 1013.5 - 0.0
29/08:00am 22.7 23.3 18.6 77 2.6 ESE 13 19 7 10 1013.3 - 0.0
29/07:30am 21.5 22.4 18.5 83 1.9 SE 11 15 6 8 1013.1 - 0.0
29/07:00am 20.4 21.9 18.1 87 1.4 SE 7 11 4 6 1012.9 - 0.0
29/06:30am 20.5 22.0 18.1 86 1.5 SSE 7 11 4 6 1012.6 - 0.0
29/06:00am 20.7 21.8 18.1 85 1.6 SSE 9 15 5 8 1012.5 1012.3 0.0
29/05:30am 20.9 22.5 18.2 84 1.7 SSE 7 11 4 6 1012.4 - 0.0
29/05:00am 20.8 22.3 18.1 84 1.7 SE 7 11 4 6 1012.3 - 0.0
29/04:30am 21.3 22.2 18.3 83 1.9 SE 11 13 6 7 1012.1 - 0.0
29/04:00am 21.8 21.9 18.4 81 2.1 ESE 15 22 8 12 1012.0 - 0.0
29/03:30am 21.6 22.1 18.3 81 2.1 ESE 13 19 7 10 1012.3 - 0.0
29/03:00am 21.7 22.5 18.2 80 2.2 SE 11 15 6 8 1012.7 1012.5 0.0
29/02:30am 21.8 22.5 18.0 79 2.4 SE 11 15 6 8 1012.7 - 0.0
29/02:00am 22.4 22.8 18.1 76 2.7 ESE 13 19 7 10 1012.9 - 0.0
29/01:30am 22.5 23.4 18.4 77 2.6 ESE 11 17 6 9 1013.0 - 0.0
29/01:00am 22.8 23.4 18.5 77 2.7 ESE 13 19 7 10 1013.2 - 0.0
29/12:30am 23.1 23.8 18.8 77 2.7 ESE 13 19 7 10 1013.3 - 0.0
29/12:00am 23.0 23.8 19.0 78 2.5 ESE 13 19 7 10 1013.3 1013.1 0.0
 
Date/Time
EST
Temp
°C
App
Temp
°C
Dew
Point
°C
Rel
Hum
%
Delta-T
°C
Wind Press
QNH
hPa
Press
MSL
hPa
Rain since
9am
mm
Dir  Spd
km/h
Gust
km/h
Spd
kts
Gust
kts
28/11:30pm 23.0 23.8 19.0 78 2.5 SE 13 20 7 11 1013.5 - 0.0
28/11:00pm 23.7 24.1 19.1 75 2.9 ESE 15 20 8 11 1013.5 - 0.0
28/10:30pm 24.0 24.4 19.1 74 3.1 ESE 15 20 8 11 1013.5 - 0.0
28/10:00pm 24.4 24.5 19.1 72 3.4 ESE 17 22 9 12 1013.5 - 0.0
28/09:30pm 24.8 24.8 18.9 69 3.8 ESE 17 22 9 12 1013.5 - 0.0
28/09:00pm 25.2 25.5 18.7 67 4.1 ESE 15 24 8 13 1013.5 1013.3 0.0
28/08:30pm 25.7 25.1 18.4 64 4.6 ESE 19 24 10 13 1013.1 - 0.0
28/08:00pm 26.3 25.1 18.5 62 5.0 ESE 22 32 12 17 1012.6 - 0.0
28/07:30pm 26.7 26.9 18.6 61 5.2 ESE 15 20 8 11 1012.2 - 0.0
28/07:00pm 27.3 27.5 18.5 58 5.6 ESE 15 24 8 13 1011.6 - 0.0
28/06:30pm 27.6 28.5 18.5 57 5.8 SE 11 17 6 9 1011.2 - 0.0
28/06:00pm 28.6 29.8 18.3 53 6.6 SE 9 17 5 9 1011.0 1010.8 0.0
28/05:30pm 29.6 28.7 17.8 49 7.5 SE 19 26 10 14 1010.7 - 0.0
28/05:00pm 30.1 29.8 18.2 49 7.6 SE 17 28 9 15 1010.4 - 0.0
28/04:30pm 30.6 29.0 17.5 45 8.3 SE 22 32 12 17 1010.2 - 0.0
28/04:00pm 31.3 30.3 17.6 44 8.7 SE 19 30 10 16 1010.0 - 0.0
28/03:30pm 32.0 30.4 17.4 41 9.3 ESE 22 33 12 18 1010.0 - 0.0
28/03:00pm 31.2 30.5 18.2 46 8.4 ESE 19 24 10 13 1010.1 1009.9 0.0
28/02:30pm 30.4 30.4 18.0 47 7.9 SE 15 22 8 12 1010.4 - 0.0
28/02:00pm 31.6 31.7 18.3 45 8.6 SE 15 22 8 12 1010.8 - 0.0
28/01:30pm 31.5 30.6 18.2 45 8.6 E 20 33 11 18 1011.1 - 0.0
28/01:00pm 31.2 30.1 18.6 47 8.2 ESE 22 33 12 18 1011.5 - 0.0
28/12:30pm 30.3 28.2 18.0 47 7.9 ESE 26 39 14 21 1012.0 - 0.0
28/12:00pm 30.1 28.9 18.3 49 7.6 ESE 22 35 12 19 1012.5 1012.3 0.0
28/11:30am 29.6 28.1 18.6 51 7.1 ESE 24 35 13 19 1012.9 - 0.0
28/11:00am 29.1 27.9 18.4 52 6.9 ESE 22 33 12 18 1013.0 - 0.0
28/10:30am 28.2 26.2 18.4 55 6.3 ESE 26 35 14 19 1013.3 - 0.0
28/10:00am 27.1 25.4 18.9 61 5.3 ESE 26 33 14 18 1013.2 - 0.0
28/09:30am 26.1 24.9 19.2 65 4.4 ESE 24 35 13 19 1013.3 - 0.0
28/09:00am 24.9 23.2 19.0 69 3.8 ESE 26 39 14 21 1013.4 1013.2 0.0
28/08:30am 24.3 23.5 19.2 73 3.3 ESE 22 30 12 16 1013.0 - 0.0
28/08:00am 23.4 23.1 19.1 77 2.7 ESE 19 24 10 13 1012.8 - 0.0
28/07:30am 22.6 23.0 19.1 80 2.2 ESE 15 22 8 12 1012.5 - 0.0
28/07:00am 21.9 22.3 18.9 83 1.9 ESE 15 20 8 11 1012.4 - 0.0
28/06:30am 21.8 23.0 19.0 84 1.8 ESE 11 17 6 9 1012.3 - 0.0
28/06:00am 21.9 22.7 19.0 83 1.8 ESE 13 19 7 10 1012.2 1012.0 0.0
28/05:30am 22.3 23.5 19.1 82 2.0 ESE 11 17 6 9 1012.2 - 0.0
28/05:00am 22.5 24.1 19.1 81 2.2 SE 9 13 5 7 1012.3 - 0.0
28/04:30am 22.5 24.0 19.0 80 2.2 SE 9 15 5 8 1012.3 - 0.0
28/04:00am 22.5 23.6 18.9 80 2.3 SE 11 17 6 9 1012.3 - 0.0
28/03:30am 22.6 24.1 18.9 79 2.3 SE 9 15 5 8 1012.5 - 0.0
28/03:00am 22.5 23.3 19.0 80 2.2 SE 13 19 7 10 1012.7 1012.5 0.0
28/02:30am 22.3 23.0 18.9 81 2.1 SE 13 17 7 9 1012.9 - 0.0
28/02:00am 22.3 23.8 18.9 81 2.1 SE 9 17 5 9 1013.1 - 0.0
28/01:30am 22.4 24.2 18.8 80 2.3 ESE 7 11 4 6 1013.5 - 0.0
28/01:00am 22.6 24.4 18.8 79 2.4 SE 7 13 4 7 1013.7 - 0.0
28/12:30am 23.1 24.6 18.9 77 2.7 ESE 9 15 5 8 1013.7 - 0.0
28/12:00am 23.3 24.8 19.0 77 2.7 SE 9 15 5 8 1013.6 1013.4 0.0
 
Date/Time
EST
Temp
°C
App
Temp
°C
Dew
Point
°C
Rel
Hum
%
Delta-T
°C
Wind Press
QNH
hPa
Press
MSL
hPa
Rain since
9am
mm
Dir  Spd
km/h
Gust
km/h
Spd
kts
Gust
kts
27/11:30pm 23.5 25.5 19.2 77 2.7 SE 7 13 4 7 1013.9 - 0.0
27/11:00pm 23.7 25.4 19.3 76 2.8 SE 9 13 5 7 1013.9 - 0.0
27/10:30pm 24.2 25.5 19.4 74 3.1 SE 11 19 6 10 1013.7 - 0.0
27/10:00pm 24.8 25.1 19.5 72 3.4 ESE 17 22 9 12 1013.6 - 0.0
27/09:30pm 24.7 26.7 20.0 75 3.0 ESE 9 15 5 8 1013.5 - 0.0
27/09:00pm 24.7 27.0 19.9 74 3.1 SE 7 9 4 5 1013.4 1013.2 0.0
27/08:30pm 25.7 26.9 19.9 70 3.8 ESE 13 17 7 9 1013.2 - 0.0
27/08:00pm 25.9 28.0 20.1 70 3.8 E 9 17 5 9 1012.7 - 0.0
27/07:30pm 26.4 28.4 20.0 68 4.2 ESE 9 15 5 8 1012.3 - 0.0
27/07:00pm 27.0 29.0 19.9 65 4.6 ESE 9 13 5 7 1012.0 - 0.0
27/06:30pm 27.7 28.1 19.8 62 5.1 ESE 17 26 9 14 1011.6 - 0.0
27/06:00pm 28.4 28.7 19.7 59 5.7 ESE 17 24 9 13 1011.3 1011.1 0.0
27/05:30pm 29.3 29.4 19.9 57 6.2 ESE 19 28 10 15 1011.0 - 0.0
27/05:00pm 29.8 29.9 19.9 55 6.5 ESE 19 24 10 13 1010.8 - 0.0
27/04:30pm 30.2 30.1 20.0 54 6.7 ESE 20 28 11 15 1010.7 - 0.0
27/04:00pm 30.4 30.6 20.1 54 6.8 SE 19 32 10 17 1010.6 - 0.0
27/03:30pm 30.2 30.3 19.9 54 6.8 SE 19 28 10 15 1010.5 - 0.0
27/03:00pm 30.8 32.0 20.7 55 6.7 ESE 15 20 8 11 1010.6 1010.4 0.0
27/02:30pm 30.6 30.6 19.7 52 7.2 ESE 19 28 10 15 1010.8 - 0.0
27/02:00pm 30.3 29.2 19.4 52 7.1 ESE 24 32 13 17 1011.2 - 0.0
27/01:30pm 30.5 29.8 19.4 51 7.3 ESE 22 32 12 17 1011.4 - 0.0

Other Formats:

Comma delimited format used in spreadsheet applications
http://www.bom.gov.au/fwo/IDQ60801/IDQ60801.94170.axf

JavaScript Object Notation format (JSON) in row-major order
http://www.bom.gov.au/fwo/IDQ60801/IDQ60801.94170.json